createdAt,value
2023-05-08T00:00:58.056Z,6.40
2023-05-08T00:02:00.067Z,6.30
2023-05-08T00:03:02.160Z,6.70
2023-05-08T00:04:05.713Z,6.97
2023-05-08T00:05:08.264Z,6.47
2023-05-08T00:06:10.451Z,6.68
2023-05-08T00:07:12.468Z,6.80
2023-05-08T00:08:14.390Z,6.80
2023-05-08T00:09:16.388Z,7.25
2023-05-08T00:10:18.519Z,7.15
2023-05-08T00:11:20.967Z,7.10
2023-05-08T00:12:22.963Z,6.55
2023-05-08T00:13:25.074Z,6.97
2023-05-08T00:14:27.160Z,7.40
2023-05-08T00:15:29.169Z,6.95
2023-05-08T00:16:32.285Z,7.20
2023-05-08T00:17:34.396Z,7.15
2023-05-08T00:18:37.745Z,7.55
2023-05-08T00:19:39.744Z,7.25
2023-05-08T00:20:41.902Z,7.20
2023-05-08T00:21:43.907Z,7.07
2023-05-08T00:22:45.865Z,7.28
2023-05-08T00:23:47.927Z,7.90
2023-05-08T00:24:49.963Z,6.83
2023-05-08T00:25:51.930Z,6.97
2023-05-08T00:26:54.035Z,6.82
2023-05-08T00:27:56.110Z,6.63
2023-05-08T00:28:58.573Z,6.38
2023-05-08T00:30:00.649Z,6.15
2023-05-08T00:31:02.724Z,6.50
2023-05-08T00:32:04.944Z,6.45
2023-05-08T00:33:06.923Z,6.20
2023-05-08T00:34:09.238Z,6.28
2023-05-08T00:35:11.332Z,6.30
2023-05-08T00:36:15.840Z,6.72
2023-05-08T00:37:17.944Z,6.25
2023-05-08T00:38:20.066Z,6.00
2023-05-08T00:39:22.012Z,6.63
2023-05-08T00:40:24.179Z,6.38
2023-05-08T00:41:26.308Z,6.40
2023-05-08T00:42:28.307Z,5.70
2023-05-08T00:43:31.290Z,5.80
2023-05-08T00:44:33.540Z,6.05
2023-05-08T00:45:38.585Z,6.27
2023-05-08T00:46:42.030Z,6.53
2023-05-08T00:47:44.284Z,6.95
2023-05-08T00:48:47.002Z,6.60
2023-05-08T00:49:49.362Z,6.90
2023-05-08T00:50:52.917Z,6.32
2023-05-08T00:51:56.120Z,6.50
2023-05-08T00:52:58.942Z,6.60
2023-05-08T00:54:01.235Z,6.72
2023-05-08T00:55:06.655Z,6.72
2023-05-08T00:56:12.156Z,6.67
2023-05-08T00:57:15.613Z,6.82
2023-05-08T00:58:18.798Z,7.32
2023-05-08T00:59:22.197Z,6.60
2023-05-08T01:00:24.854Z,6.97
2023-05-08T01:01:27.022Z,6.90
2023-05-08T01:02:31.716Z,6.90
2023-05-08T01:03:36.511Z,6.88
2023-05-08T01:04:39.367Z,6.82
2023-05-08T01:05:41.966Z,7.22
2023-05-08T01:06:44.021Z,7.47
2023-05-08T01:07:46.352Z,7.10
2023-05-08T01:08:48.369Z,6.72
2023-05-08T01:09:50.452Z,6.90
2023-05-08T01:11:08.707Z,7.28
2023-05-08T01:12:53.394Z,6.57
2023-05-08T01:14:24.789Z,6.85
2023-05-08T01:15:36.339Z,6.90
2023-05-08T01:16:53.166Z,6.63
2023-05-08T01:18:06.861Z,6.07
2023-05-08T01:19:21.052Z,6.60
2023-05-08T01:20:38.078Z,6.45
2023-05-08T01:22:13.389Z,6.25
2023-05-08T01:23:59.066Z,6.20
2023-05-08T01:25:25.454Z,6.95
2023-05-08T01:26:54.654Z,6.93
2023-05-08T01:28:34.647Z,6.57
2023-05-08T01:29:51.533Z,6.70
2023-05-08T01:31:24.836Z,6.88
2023-05-08T01:32:36.468Z,6.20
2023-05-08T01:33:59.849Z,6.33
2023-05-08T01:35:20.559Z,6.40
2023-05-08T01:36:33.971Z,6.35
2023-05-08T01:38:06.644Z,6.90
2023-05-08T01:39:50.713Z,6.53
2023-05-08T01:41:16.370Z,6.20
2023-05-08T01:42:28.218Z,6.18
2023-05-08T01:43:51.207Z,6.63
2023-05-08T01:45:10.960Z,6.40
2023-05-08T01:46:22.868Z,6.40
2023-05-08T01:47:29.916Z,6.33
2023-05-08T01:48:35.789Z,6.35
2023-05-08T01:49:52.233Z,6.38
2023-05-08T01:51:00.701Z,6.32
2023-05-08T01:52:29.923Z,6.55
2023-05-08T01:53:56.208Z,6.45
2023-05-08T01:55:11.385Z,6.20
2023-05-08T01:56:17.297Z,6.32
2023-05-08T01:57:21.275Z,6.20
2023-05-08T01:58:25.643Z,6.47
2023-05-08T01:59:29.383Z,6.57
2023-05-08T02:00:31.897Z,6.18
2023-05-08T02:01:34.951Z,6.35
2023-05-08T02:02:38.300Z,6.63
2023-05-08T02:03:43.325Z,6.00
2023-05-08T02:04:45.887Z,6.68
2023-05-08T02:05:51.283Z,6.70
2023-05-08T02:06:57.404Z,6.72
2023-05-08T02:08:02.989Z,6.25
2023-05-08T02:09:08.855Z,6.45
2023-05-08T02:10:12.329Z,6.70
2023-05-08T02:11:16.739Z,6.75
2023-05-08T02:12:22.156Z,6.40
2023-05-08T02:13:27.561Z,6.30
2023-05-08T02:14:31.244Z,6.10
2023-05-08T02:15:36.749Z,6.55
2023-05-08T02:16:40.580Z,6.75
2023-05-08T02:17:45.501Z,6.15
2023-05-08T02:18:52.679Z,6.15
2023-05-08T02:19:56.799Z,6.20
2023-05-08T02:21:02.409Z,6.27
2023-05-08T02:22:05.715Z,5.90
2023-05-08T02:23:08.715Z,6.28
2023-05-08T02:24:11.843Z,6.53
2023-05-08T02:25:16.366Z,6.32
2023-05-08T02:26:21.695Z,6.45
2023-05-08T02:27:26.706Z,6.68
2023-05-08T02:28:30.826Z,6.70
2023-05-08T02:29:36.550Z,6.70
2023-05-08T02:30:40.513Z,6.95
2023-05-08T02:31:43.180Z,7.43
2023-05-08T02:32:47.067Z,6.97
2023-05-08T02:33:50.164Z,6.40
2023-05-08T02:35:02.587Z,6.82
2023-05-08T02:36:07.620Z,6.38
2023-05-08T02:37:11.633Z,6.47
2023-05-08T02:38:15.898Z,6.63
2023-05-08T02:39:19.990Z,6.45
2023-05-08T02:40:24.832Z,6.70
2023-05-08T02:41:32.540Z,6.35
2023-05-08T02:42:34.821Z,6.80
2023-05-08T02:43:37.329Z,6.40
2023-05-08T02:44:39.537Z,6.70
2023-05-08T02:45:52.634Z,6.93
2023-05-08T02:47:01.067Z,6.95
2023-05-08T02:48:24.248Z,6.40
2023-05-08T02:50:10.729Z,6.60
2023-05-08T02:51:22.324Z,7.70
2023-05-08T02:52:28.655Z,6.00
2023-05-08T02:53:40.846Z,6.18
2023-05-08T02:54:58.152Z,6.90
2023-05-08T02:56:13.305Z,6.55
2023-05-08T02:57:22.838Z,6.57
2023-05-08T02:58:34.913Z,6.97
2023-05-08T02:59:42.521Z,6.95
2023-05-08T03:01:07.433Z,7.15
2023-05-08T03:02:15.827Z,7.60
2023-05-08T03:03:39.104Z,6.97
2023-05-08T03:05:03.362Z,7.70
2023-05-08T03:06:12.781Z,7.43
2023-05-08T03:07:15.985Z,7.63
2023-05-08T03:08:24.005Z,7.55
2023-05-08T03:09:34.237Z,6.88
2023-05-08T03:10:39.417Z,7.57
2023-05-08T03:11:43.754Z,6.80
2023-05-08T03:12:50.743Z,7.70
2023-05-08T03:13:58.949Z,7.53
2023-05-08T03:15:07.048Z,7.53
2023-05-08T03:16:18.139Z,7.22
2023-05-08T03:17:22.902Z,7.30
2023-05-08T03:18:31.231Z,7.40
2023-05-08T03:19:38.416Z,7.47
2023-05-08T03:20:45.414Z,7.80
2023-05-08T03:21:49.353Z,7.57
2023-05-08T03:22:53.458Z,8.02
2023-05-08T03:23:57.860Z,7.40
2023-05-08T03:25:02.800Z,7.40
2023-05-08T03:26:05.930Z,7.30
2023-05-08T03:27:10.016Z,6.97
2023-05-08T03:28:14.832Z,6.90
2023-05-08T03:29:20.137Z,6.93
2023-05-08T03:30:23.642Z,7.07
2023-05-08T03:31:36.326Z,7.00
2023-05-08T03:32:40.325Z,7.40
2023-05-08T03:33:43.942Z,6.80
2023-05-08T03:34:47.446Z,6.93
2023-05-08T03:35:51.244Z,6.68
2023-05-08T03:36:53.262Z,6.97
2023-05-08T03:37:55.539Z,7.60
2023-05-08T03:38:57.909Z,7.00
2023-05-08T03:40:00.026Z,7.60
2023-05-08T03:41:02.355Z,7.53
2023-05-08T03:42:04.699Z,7.57
2023-05-08T03:43:11.401Z,6.90
2023-05-08T03:44:14.323Z,7.93
2023-05-08T03:45:17.545Z,7.03
2023-05-08T03:46:21.148Z,7.05
2023-05-08T03:47:28.226Z,7.10
2023-05-08T03:48:34.293Z,7.63
2023-05-08T03:49:38.636Z,7.00
2023-05-08T03:50:41.383Z,6.80
2023-05-08T03:51:45.422Z,6.93
2023-05-08T03:52:47.951Z,7.40
2023-05-08T03:53:50.075Z,7.25
2023-05-08T03:54:53.003Z,7.05
2023-05-08T03:55:56.241Z,7.72
2023-05-08T03:56:58.218Z,7.10
2023-05-08T03:58:25.388Z,7.20
2023-05-08T03:59:44.451Z,6.68
2023-05-08T04:01:04.910Z,7.10
2023-05-08T04:02:23.228Z,7.10
2023-05-08T04:03:55.085Z,7.20
2023-05-08T04:05:34.400Z,7.88
2023-05-08T04:06:54.580Z,7.60
2023-05-08T04:08:06.208Z,7.20
2023-05-08T04:09:29.024Z,7.15
2023-05-08T04:10:49.744Z,6.97
2023-05-08T04:12:20.053Z,7.40
2023-05-08T04:13:31.371Z,7.40
2023-05-08T04:15:02.883Z,7.55
2023-05-08T04:16:10.004Z,7.50
2023-05-08T04:17:17.872Z,7.30
2023-05-08T04:18:25.346Z,8.05
2023-05-08T04:19:30.073Z,7.70
2023-05-08T04:20:33.092Z,7.68
2023-05-08T04:21:36.888Z,7.65
2023-05-08T04:22:41.007Z,7.20
2023-05-08T04:23:46.145Z,7.45
2023-05-08T04:24:51.460Z,7.28
2023-05-08T04:25:55.861Z,7.22
2023-05-08T04:26:58.761Z,7.13
2023-05-08T04:28:02.712Z,7.10
2023-05-08T04:29:07.180Z,8.00
2023-05-08T04:30:10.639Z,7.00
2023-05-08T04:31:17.312Z,7.50
2023-05-08T04:32:21.185Z,7.65
2023-05-08T04:33:24.170Z,7.25
2023-05-08T04:34:27.496Z,7.30
2023-05-08T04:35:30.086Z,6.85
2023-05-08T04:36:33.993Z,7.47
2023-05-08T04:37:37.468Z,7.33
2023-05-08T04:38:42.750Z,7.55
2023-05-08T04:39:45.732Z,8.20
2023-05-08T04:40:47.765Z,8.35
2023-05-08T04:41:52.512Z,8.43
2023-05-08T04:42:56.053Z,8.20
2023-05-08T04:43:58.962Z,7.88
2023-05-08T04:45:00.956Z,8.07
2023-05-08T04:46:05.823Z,8.68
2023-05-08T04:47:07.939Z,8.40
2023-05-08T04:48:10.038Z,8.07
2023-05-08T04:49:12.112Z,8.05
2023-05-08T04:50:14.194Z,7.78
2023-05-08T04:51:16.789Z,8.48
2023-05-08T04:52:19.099Z,8.00
2023-05-08T04:53:21.191Z,8.43
2023-05-08T04:54:23.177Z,8.43
2023-05-08T04:55:25.190Z,8.10
2023-05-08T04:56:27.738Z,8.30
2023-05-08T04:57:30.026Z,7.65
2023-05-08T04:59:04.098Z,8.13
2023-05-08T05:00:07.089Z,7.72
2023-05-08T05:01:13.226Z,7.60
2023-05-08T05:02:15.396Z,7.70
2023-05-08T05:03:17.908Z,8.48
2023-05-08T05:04:19.943Z,8.40
2023-05-08T05:05:21.975Z,7.90
2023-05-08T05:06:24.019Z,7.88
2023-05-08T05:07:26.102Z,7.95
2023-05-08T05:08:28.763Z,8.00
2023-05-08T05:09:34.976Z,8.00
2023-05-08T05:10:39.106Z,8.43
2023-05-08T05:11:41.125Z,8.23
2023-05-08T05:12:43.260Z,7.93
2023-05-08T05:13:45.419Z,8.15
2023-05-08T05:14:47.586Z,7.50
2023-05-08T05:15:51.514Z,7.57
2023-05-08T05:16:53.571Z,7.60
2023-05-08T05:17:55.919Z,7.50
2023-05-08T05:18:58.007Z,7.85
2023-05-08T05:20:00.072Z,7.90
2023-05-08T05:21:02.200Z,7.50
2023-05-08T05:22:06.350Z,7.70
2023-05-08T05:23:08.681Z,8.35
2023-05-08T05:24:11.086Z,7.72
2023-05-08T05:25:13.410Z,8.35
2023-05-08T05:26:15.707Z,8.23
2023-05-08T05:27:19.923Z,8.27
2023-05-08T05:28:23.576Z,8.07
2023-05-08T05:29:25.644Z,7.93
2023-05-08T05:30:28.099Z,7.37
2023-05-08T05:31:30.490Z,7.25
2023-05-08T05:32:32.627Z,7.47
2023-05-08T05:33:34.817Z,7.55
2023-05-08T05:34:36.874Z,8.05
2023-05-08T05:35:39.024Z,7.88
2023-05-08T05:36:41.165Z,7.90
2023-05-08T05:37:43.351Z,7.45
2023-05-08T05:38:45.660Z,9.50
2023-05-08T05:39:47.862Z,8.18
2023-05-08T05:40:49.923Z,7.93
2023-05-08T05:41:52.109Z,7.78
2023-05-08T05:42:54.256Z,7.70
2023-05-08T05:43:56.302Z,7.45
2023-05-08T05:44:59.225Z,8.27
2023-05-08T05:46:09.071Z,7.90
2023-05-08T05:47:11.733Z,7.45
2023-05-08T05:48:15.725Z,7.72
2023-05-08T05:49:17.776Z,7.70
2023-05-08T05:50:21.480Z,7.32
2023-05-08T05:51:24.682Z,8.07
2023-05-08T05:52:26.892Z,7.60
2023-05-08T05:53:28.923Z,7.88
2023-05-08T05:54:31.222Z,8.23
2023-05-08T05:55:34.325Z,7.75
2023-05-08T05:56:37.587Z,7.70
2023-05-08T05:57:39.865Z,8.10
2023-05-08T05:58:45.039Z,8.07
2023-05-08T05:59:47.370Z,8.05
2023-05-08T06:00:49.359Z,8.30
2023-05-08T06:01:51.826Z,8.40
2023-05-08T06:02:53.968Z,7.53
2023-05-08T06:03:56.488Z,7.65
2023-05-08T06:04:58.640Z,7.75
2023-05-08T06:06:00.750Z,8.07
2023-05-08T06:07:02.762Z,7.78
2023-05-08T06:08:05.843Z,7.63
2023-05-08T06:09:07.917Z,7.85
2023-05-08T06:10:10.747Z,8.32
2023-05-08T06:11:12.860Z,7.95
2023-05-08T06:12:15.212Z,8.23
2023-05-08T06:13:17.469Z,8.63
2023-05-08T06:14:19.626Z,8.20
2023-05-08T06:15:21.905Z,7.70
2023-05-08T06:16:25.054Z,7.75
2023-05-08T06:17:27.152Z,8.30
2023-05-08T06:18:29.372Z,8.23
2023-05-08T06:21:43.043Z,7.18
2023-05-08T06:22:45.114Z,7.28
2023-05-08T06:23:47.089Z,7.43
2023-05-08T06:25:20.983Z,7.75
2023-05-08T06:26:23.640Z,7.70
2023-05-08T06:27:26.129Z,8.25
2023-05-08T06:28:28.329Z,7.63
2023-05-08T06:29:30.348Z,8.25
2023-05-08T06:30:32.535Z,7.80
2023-05-08T06:31:34.645Z,7.93
2023-05-08T06:32:37.180Z,7.90
2023-05-08T06:33:39.230Z,7.88
2023-05-08T06:34:41.256Z,7.53
2023-05-08T06:35:47.700Z,7.75
2023-05-08T06:36:49.742Z,7.70
2023-05-08T06:37:51.759Z,7.68
2023-05-08T06:38:53.752Z,7.63
2023-05-08T06:40:10.207Z,8.45
2023-05-08T06:41:15.344Z,8.57
2023-05-08T06:42:17.514Z,7.45
2023-05-08T06:43:21.790Z,8.07
2023-05-08T06:44:23.875Z,7.63
2023-05-08T06:45:26.205Z,8.27
2023-05-08T06:46:30.040Z,7.93
2023-05-08T06:47:32.229Z,7.72
2023-05-08T06:48:34.368Z,7.63
2023-05-08T06:49:37.123Z,7.68
2023-05-08T06:50:39.661Z,7.85
2023-05-08T06:51:41.932Z,7.85
2023-05-08T06:52:43.929Z,7.88
2023-05-08T06:53:45.865Z,7.47
2023-05-08T06:54:47.942Z,7.13
2023-05-08T06:55:49.958Z,7.17
2023-05-08T06:56:54.283Z,7.20
2023-05-08T06:57:56.758Z,7.43
2023-05-08T06:59:07.917Z,8.07
2023-05-08T07:00:11.681Z,7.85
2023-05-08T07:01:14.934Z,7.45
2023-05-08T07:02:17.156Z,8.13
2023-05-08T07:03:19.188Z,7.30
2023-05-08T07:04:21.287Z,7.85
2023-05-08T07:05:23.452Z,7.28
2023-05-08T07:06:25.452Z,7.07
2023-05-08T07:07:27.535Z,8.50
2023-05-08T07:08:30.224Z,8.40
2023-05-08T07:09:32.268Z,8.73
2023-05-08T07:10:34.522Z,8.38
2023-05-08T07:11:36.578Z,8.20
2023-05-08T07:12:38.694Z,8.48
2023-05-08T07:13:43.227Z,8.30
2023-05-08T07:14:45.735Z,8.05
2023-05-08T07:15:48.069Z,8.90
2023-05-08T07:16:50.114Z,8.73
2023-05-08T07:17:52.227Z,8.25
2023-05-08T07:18:54.290Z,8.55
2023-05-08T07:19:56.319Z,8.90
2023-05-08T07:20:58.306Z,8.30
2023-05-08T07:22:00.924Z,8.60
2023-05-08T07:23:03.122Z,8.38
2023-05-08T07:24:05.454Z,8.50
2023-05-08T07:25:08.146Z,8.23
2023-05-08T07:26:10.294Z,8.07
2023-05-08T07:27:14.544Z,7.90
2023-05-08T07:28:16.582Z,8.65
2023-05-08T07:29:18.631Z,9.00
2023-05-08T07:30:20.737Z,8.30
2023-05-08T07:31:22.906Z,7.95
2023-05-08T07:32:25.253Z,8.50
2023-05-08T07:33:27.312Z,8.50
2023-05-08T07:34:29.302Z,8.02
2023-05-08T07:35:31.353Z,8.13
2023-05-08T07:36:33.379Z,8.13
2023-05-08T07:37:35.659Z,8.20
2023-05-08T07:38:37.703Z,8.25
2023-05-08T07:39:39.686Z,7.75
2023-05-08T07:40:41.784Z,8.18
2023-05-08T07:41:43.942Z,8.10
2023-05-08T07:42:45.968Z,8.48
2023-05-08T07:43:48.041Z,7.88
2023-05-08T07:44:54.998Z,8.32
2023-05-08T07:45:57.989Z,8.07
2023-05-08T07:47:00.201Z,8.10
2023-05-08T07:48:02.353Z,7.37
2023-05-08T07:49:04.458Z,8.32
2023-05-08T07:50:07.016Z,8.13
2023-05-08T07:51:11.243Z,8.30
2023-05-08T07:52:13.267Z,8.48
2023-05-08T07:53:15.408Z,7.82
2023-05-08T07:54:17.370Z,8.30
2023-05-08T07:55:20.236Z,8.68
2023-05-08T07:56:25.362Z,8.00
2023-05-08T07:57:27.476Z,36.63
2023-05-08T07:58:29.529Z,9.40
2023-05-08T07:59:31.480Z,13.85
2023-05-08T08:00:33.612Z,7.47
2023-05-08T08:01:35.653Z,7.70
2023-05-08T08:02:38.478Z,9.13
2023-05-08T08:03:41.059Z,7.68
2023-05-08T08:04:43.450Z,7.93
2023-05-08T08:05:45.636Z,8.10
2023-05-08T08:06:47.683Z,8.13
2023-05-08T08:07:49.706Z,7.97
2023-05-08T08:08:51.732Z,7.60
2023-05-08T08:09:53.954Z,7.82
2023-05-08T08:10:55.972Z,8.40
2023-05-08T08:11:58.836Z,8.40
2023-05-08T08:13:02.038Z,8.23
2023-05-08T08:14:04.164Z,8.77
2023-05-08T08:15:06.775Z,8.68
2023-05-08T08:16:08.911Z,8.50
2023-05-08T08:17:10.964Z,8.40
2023-05-08T08:18:13.291Z,8.07
2023-05-08T08:19:15.272Z,8.73
2023-05-08T08:20:17.381Z,8.43
2023-05-08T08:21:20.372Z,8.95
2023-05-08T08:22:22.345Z,8.32
2023-05-08T08:23:24.538Z,8.65
2023-05-08T08:24:26.610Z,8.52
2023-05-08T08:25:28.747Z,8.73
2023-05-08T08:26:30.934Z,8.32
2023-05-08T08:27:32.998Z,8.10
2023-05-08T08:28:34.995Z,8.18
2023-05-08T08:29:37.019Z,8.13
2023-05-08T08:30:39.121Z,8.95
2023-05-08T08:31:41.362Z,8.18
2023-05-08T08:32:43.555Z,8.07
2023-05-08T08:33:46.091Z,8.27
2023-05-08T08:34:48.042Z,8.05
2023-05-08T08:35:50.049Z,8.35
2023-05-08T08:36:52.205Z,8.90
2023-05-08T08:37:54.146Z,8.68
2023-05-08T08:38:56.180Z,9.05
2023-05-08T08:39:58.358Z,8.83
2023-05-08T08:41:00.393Z,8.95
2023-05-08T08:42:02.737Z,8.50
2023-05-08T08:43:04.738Z,10.60
2023-05-08T08:44:07.063Z,8.48
2023-05-08T08:45:10.355Z,9.27
2023-05-08T08:46:15.434Z,9.35
2023-05-08T08:47:23.396Z,9.50
2023-05-08T08:48:28.824Z,10.20
2023-05-08T08:49:36.204Z,9.52
2023-05-08T08:50:43.064Z,9.60
2023-05-08T08:51:52.754Z,9.10
2023-05-08T08:53:20.162Z,9.50
2023-05-08T08:54:24.556Z,8.80
2023-05-08T08:55:27.679Z,8.90
2023-05-08T08:56:30.963Z,8.90
2023-05-08T08:57:36.837Z,9.05
2023-05-08T08:58:56.619Z,10.52
2023-05-08T09:00:03.899Z,10.70
2023-05-08T09:01:07.777Z,9.90
2023-05-08T09:02:14.842Z,10.27
2023-05-08T09:03:17.438Z,10.05
2023-05-08T09:04:19.605Z,10.63
2023-05-08T09:05:23.731Z,9.80
2023-05-08T09:06:27.794Z,10.07
2023-05-08T09:07:30.981Z,9.93
2023-05-08T09:08:33.520Z,9.18
2023-05-08T09:09:40.957Z,8.90
2023-05-08T09:10:43.072Z,8.93
2023-05-08T09:11:46.836Z,9.40
2023-05-08T09:12:48.932Z,8.93
2023-05-08T09:14:24.510Z,8.45
2023-05-08T09:15:26.597Z,8.52
2023-05-08T09:16:28.759Z,8.27
2023-05-08T09:17:31.060Z,8.63
2023-05-08T09:18:33.125Z,8.77
2023-05-08T09:19:35.662Z,9.15
2023-05-08T09:20:40.777Z,8.23
2023-05-08T09:21:43.239Z,8.85
2023-05-08T09:22:46.464Z,8.50
2023-05-08T09:24:03.114Z,8.30
2023-05-08T09:25:05.797Z,7.68
2023-05-08T09:26:09.301Z,8.63
2023-05-08T09:27:27.362Z,8.80
2023-05-08T09:28:29.403Z,8.45
2023-05-08T09:29:31.436Z,8.98
2023-05-08T09:30:49.717Z,9.05
2023-05-08T09:31:53.645Z,8.80
2023-05-08T09:33:03.009Z,8.57
2023-05-08T09:34:12.313Z,8.57
2023-05-08T09:35:14.718Z,8.03
2023-05-08T09:36:28.773Z,8.43
2023-05-08T09:37:31.007Z,9.50
2023-05-08T09:38:37.727Z,9.13
2023-05-08T09:39:41.506Z,9.18
2023-05-08T09:40:43.509Z,9.70
2023-05-08T09:42:03.103Z,9.27
2023-05-08T09:43:16.562Z,8.98
2023-05-08T09:44:18.618Z,9.50
2023-05-08T09:45:35.395Z,8.98
2023-05-08T09:46:37.721Z,8.80
2023-05-08T09:47:48.436Z,8.90
2023-05-08T09:48:51.772Z,10.10
2023-05-08T09:50:05.170Z,9.80
2023-05-08T09:51:07.450Z,9.98
2023-05-08T09:52:15.962Z,9.77
2023-05-08T09:53:18.089Z,9.85
2023-05-08T09:54:20.826Z,9.68
2023-05-08T09:55:57.134Z,9.52
2023-05-08T09:56:59.308Z,8.95
2023-05-08T09:58:02.389Z,9.07
2023-05-08T09:59:21.707Z,9.25
2023-05-08T10:00:28.063Z,9.02
2023-05-08T10:01:31.744Z,9.38
2023-05-08T10:02:34.451Z,9.00
2023-05-08T10:03:50.294Z,9.27
2023-05-08T10:04:53.034Z,8.50
2023-05-08T10:05:55.007Z,8.90
2023-05-08T10:07:00.978Z,9.45
2023-05-08T10:08:19.319Z,9.10
2023-05-08T10:09:21.298Z,8.90
2023-05-08T10:10:28.121Z,8.70
2023-05-08T10:11:30.199Z,8.45
2023-05-08T10:13:11.916Z,9.07
2023-05-08T10:14:14.044Z,8.27
2023-05-08T10:15:16.329Z,7.93
2023-05-08T10:16:18.882Z,8.82
2023-05-08T10:17:28.235Z,8.25
2023-05-08T10:18:32.179Z,8.55
2023-05-08T10:19:38.572Z,8.32
2023-05-08T10:20:45.728Z,9.07
2023-05-08T10:21:52.698Z,9.63
2023-05-08T10:22:57.397Z,9.57
2023-05-08T10:24:05.096Z,9.70
2023-05-08T10:25:16.448Z,12.27
2023-05-08T10:26:31.238Z,9.30
2023-05-08T10:27:47.381Z,9.48
2023-05-08T10:28:56.950Z,9.30
2023-05-08T10:30:04.275Z,23.55
2023-05-08T10:31:09.472Z,10.13
2023-05-08T10:32:14.383Z,9.40
2023-05-08T10:33:21.143Z,9.73
2023-05-08T10:34:27.018Z,9.80
2023-05-08T10:35:31.571Z,10.25
2023-05-08T10:36:35.858Z,9.82
2023-05-08T10:37:39.546Z,9.75
2023-05-08T10:38:43.412Z,10.07
2023-05-08T10:39:45.756Z,10.10
2023-05-08T10:40:50.667Z,9.80
2023-05-08T10:41:52.965Z,9.52
2023-05-08T10:42:56.589Z,10.17
2023-05-08T10:44:02.546Z,10.02
2023-05-08T10:45:06.641Z,10.73
2023-05-08T10:46:34.190Z,11.13
2023-05-08T10:48:08.983Z,10.18
2023-05-08T10:49:23.647Z,10.10
2023-05-08T10:50:47.158Z,10.57
2023-05-08T10:52:27.201Z,10.10
2023-05-08T10:53:49.139Z,9.40
2023-05-08T10:55:17.082Z,9.55
2023-05-08T10:56:24.976Z,9.70
2023-05-08T10:57:27.032Z,9.95
2023-05-08T10:58:34.792Z,10.55
2023-05-08T10:59:37.824Z,9.85
2023-05-08T11:00:59.750Z,10.27
2023-05-08T11:02:07.353Z,9.73
2023-05-08T11:03:19.985Z,10.52
2023-05-08T11:04:29.688Z,10.27
2023-05-08T11:05:31.958Z,10.55
2023-05-08T11:06:45.309Z,10.15
2023-05-08T11:08:01.301Z,10.33
2023-05-08T11:09:03.860Z,9.80
2023-05-08T11:10:14.264Z,10.98
2023-05-08T11:11:28.030Z,11.15
2023-05-08T11:12:31.638Z,11.50
2023-05-08T11:13:56.098Z,11.13
2023-05-08T11:15:03.505Z,9.75
2023-05-08T11:16:11.188Z,9.30
2023-05-08T11:17:13.403Z,9.85
2023-05-08T11:18:17.574Z,9.35
2023-05-08T11:19:20.486Z,9.50
2023-05-08T11:20:39.658Z,9.95
2023-05-08T11:22:13.736Z,9.18
2023-05-08T11:23:27.394Z,8.80
2023-05-08T11:24:36.775Z,8.80
2023-05-08T11:25:43.644Z,8.43
2023-05-08T11:26:49.602Z,8.57
2023-05-08T11:27:51.747Z,8.82
2023-05-08T11:28:53.819Z,7.80
2023-05-08T11:30:32.674Z,7.35
2023-05-08T11:31:51.389Z,7.47
2023-05-08T11:33:13.962Z,8.80
2023-05-08T11:34:41.831Z,8.50
2023-05-08T11:36:00.308Z,7.85
2023-05-08T11:37:02.865Z,7.10
2023-05-08T11:38:22.928Z,7.38
2023-05-08T11:39:25.089Z,6.90
2023-05-08T11:40:54.092Z,6.93
2023-05-08T11:42:16.087Z,7.38
2023-05-08T11:43:24.342Z,6.75
2023-05-08T11:44:28.423Z,7.23
2023-05-08T11:45:31.206Z,6.90
2023-05-08T11:46:40.477Z,7.43
2023-05-08T11:47:44.854Z,7.63
2023-05-08T11:48:47.060Z,7.13
2023-05-08T11:49:49.083Z,7.47
2023-05-08T11:50:51.746Z,8.10
2023-05-08T11:51:58.178Z,8.07
2023-05-08T11:53:00.529Z,8.23
2023-05-08T11:54:03.272Z,8.68
2023-05-08T11:55:07.578Z,8.87
2023-05-08T11:56:09.696Z,9.20
2023-05-08T11:57:11.637Z,9.60
2023-05-08T11:58:14.436Z,9.60
2023-05-08T11:59:17.351Z,9.35
2023-05-08T12:00:22.181Z,9.23
2023-05-08T12:01:24.183Z,9.20
2023-05-08T12:02:37.217Z,9.05
2023-05-08T12:03:39.434Z,9.52
2023-05-08T12:04:46.628Z,9.88
2023-05-08T12:05:50.940Z,9.27
2023-05-08T12:06:57.699Z,9.95
2023-05-08T12:08:00.165Z,9.63
2023-05-08T12:09:04.928Z,9.15
2023-05-08T12:10:07.761Z,9.45
2023-05-08T12:11:09.816Z,9.65
2023-05-08T12:12:11.847Z,9.23
2023-05-08T12:13:21.872Z,8.90
2023-05-08T12:14:23.879Z,9.73
2023-05-08T12:15:26.021Z,9.63
2023-05-08T12:16:28.185Z,8.53
2023-05-08T12:17:30.282Z,10.70
2023-05-08T12:18:32.265Z,10.60
2023-05-08T12:19:34.291Z,10.48
2023-05-08T12:20:36.502Z,10.43
2023-05-08T12:21:38.820Z,10.38
2023-05-08T12:22:52.876Z,10.63
2023-05-08T12:23:56.355Z,9.85
2023-05-08T12:24:58.426Z,10.00
2023-05-08T12:26:01.544Z,10.15
2023-05-08T12:27:04.331Z,9.77
2023-05-08T12:28:10.624Z,10.00
2023-05-08T12:29:12.606Z,10.52
2023-05-08T12:30:15.320Z,10.75
2023-05-08T12:31:17.846Z,10.77
2023-05-08T12:32:20.260Z,10.50
2023-05-08T12:33:22.353Z,10.73
2023-05-08T12:34:24.551Z,10.82
2023-05-08T12:35:27.566Z,10.85
2023-05-08T12:36:29.567Z,11.40
2023-05-08T12:37:31.692Z,11.13
2023-05-08T12:38:33.780Z,11.20
2023-05-08T12:39:39.233Z,11.75
2023-05-08T12:40:43.637Z,11.95
2023-05-08T12:41:51.848Z,11.27
2023-05-08T12:42:54.191Z,11.50
2023-05-08T12:43:57.266Z,11.82
2023-05-08T12:44:59.237Z,10.57
2023-05-08T12:46:02.203Z,11.25
2023-05-08T12:47:05.562Z,11.48
2023-05-08T12:48:09.865Z,11.43
2023-05-08T12:49:13.021Z,12.55
2023-05-08T12:50:21.187Z,12.82
2023-05-08T12:51:31.977Z,13.23
2023-05-08T12:52:37.118Z,10.98
2023-05-08T12:53:39.063Z,11.88
2023-05-08T12:54:47.961Z,13.25
2023-05-08T12:55:57.953Z,12.80
2023-05-08T12:56:59.985Z,12.88
2023-05-08T12:58:16.096Z,13.32
2023-05-08T12:59:29.133Z,13.67
2023-05-08T13:00:39.824Z,13.50
2023-05-08T13:01:41.855Z,12.93
2023-05-08T13:02:56.337Z,13.80
2023-05-08T13:04:02.378Z,14.80
2023-05-08T13:05:43.525Z,15.25
2023-05-08T13:06:57.247Z,13.95
2023-05-08T13:08:04.196Z,14.88
2023-05-08T13:09:06.245Z,14.23
2023-05-08T13:10:09.314Z,14.05
2023-05-08T13:11:11.390Z,14.00
2023-05-08T13:12:13.379Z,16.27
2023-05-08T13:13:17.073Z,15.73
2023-05-08T13:14:19.111Z,14.18
2023-05-08T13:15:21.308Z,14.18
2023-05-08T13:16:23.437Z,14.38
2023-05-08T13:17:25.512Z,14.32
2023-05-08T13:18:27.920Z,13.95
2023-05-08T13:19:29.982Z,14.75
2023-05-08T13:20:31.973Z,13.82
2023-05-08T13:21:34.001Z,13.33
2023-05-08T13:22:36.076Z,14.25
2023-05-08T13:23:38.414Z,14.57
2023-05-08T13:24:40.471Z,14.73
2023-05-08T13:25:42.540Z,13.95
2023-05-08T13:26:46.105Z,13.93
2023-05-08T13:27:48.104Z,13.02
2023-05-08T13:28:50.168Z,11.98
2023-05-08T13:29:52.286Z,10.88
2023-05-08T13:30:54.330Z,12.15
2023-05-08T13:31:56.399Z,11.77
2023-05-08T13:32:58.669Z,12.80
2023-05-08T13:34:00.788Z,12.20
2023-05-08T13:35:02.845Z,12.82
2023-05-08T13:36:05.121Z,12.88
2023-05-08T13:37:07.153Z,9.95
2023-05-08T13:38:09.229Z,8.60
2023-05-08T13:39:11.570Z,5.50
2023-05-08T13:40:14.750Z,6.55
2023-05-08T13:41:16.840Z,6.68
2023-05-08T13:42:18.842Z,8.10
2023-05-08T13:43:20.822Z,7.35
2023-05-08T13:44:22.883Z,8.05
2023-05-08T13:45:25.007Z,7.60
2023-05-08T13:46:27.294Z,6.30
2023-05-08T13:47:29.401Z,5.82
2023-05-08T13:48:31.411Z,6.07
2023-05-08T13:49:35.731Z,5.85
2023-05-08T13:50:37.688Z,5.70
2023-05-08T13:51:39.757Z,5.53
2023-05-08T13:52:42.478Z,5.70
2023-05-08T13:53:44.458Z,6.43
2023-05-08T13:54:46.429Z,6.30
2023-05-08T13:55:48.496Z,6.55
2023-05-08T13:56:50.555Z,6.22
2023-05-08T13:57:52.619Z,9.20
2023-05-08T13:58:54.681Z,10.80
2023-05-08T13:59:56.693Z,11.85
2023-05-08T14:01:00.299Z,12.32
2023-05-08T14:02:05.129Z,8.65
2023-05-08T14:03:07.359Z,9.63
2023-05-08T14:04:09.508Z,10.25
2023-05-08T14:05:12.060Z,10.60
2023-05-08T14:06:14.304Z,10.93
2023-05-08T14:07:18.303Z,10.88
2023-05-08T14:08:20.354Z,11.60
2023-05-08T14:09:22.417Z,11.63
2023-05-08T14:10:24.573Z,12.68
2023-05-08T14:11:27.302Z,14.18
2023-05-08T14:12:29.471Z,13.88
2023-05-08T14:13:31.509Z,16.27
2023-05-08T14:14:34.552Z,13.45
2023-05-08T14:15:37.997Z,13.32
2023-05-08T14:16:40.248Z,11.90
2023-05-08T14:17:42.446Z,10.70
2023-05-08T14:18:44.502Z,10.30
2023-05-08T14:19:46.523Z,10.15
2023-05-08T14:20:56.570Z,10.02
2023-05-08T14:21:59.651Z,10.25
2023-05-08T14:23:01.706Z,9.52
2023-05-08T14:24:03.970Z,9.00
2023-05-08T14:25:06.992Z,8.20
2023-05-08T14:26:08.965Z,7.80
2023-05-08T14:27:11.395Z,8.40
2023-05-08T14:28:13.401Z,8.75
2023-05-08T14:29:15.603Z,8.60
2023-05-08T14:30:17.693Z,8.75
2023-05-08T14:31:19.828Z,8.63
2023-05-08T14:32:21.952Z,8.18
2023-05-08T14:33:24.021Z,8.00
2023-05-08T14:34:26.142Z,8.50
2023-05-08T14:35:28.119Z,7.45
2023-05-08T14:36:30.285Z,7.32